createdAt,value
2017-10-06T00:00:41.741Z,1010.15
2017-10-06T00:01:50.732Z,1010.07
2017-10-06T00:02:59.575Z,1010.17
2017-10-06T00:04:08.417Z,1010.14
2017-10-06T00:05:17.264Z,1010.12
2017-10-06T00:06:26.106Z,1010.09
2017-10-06T00:07:35.099Z,1010.19
2017-10-06T00:08:43.941Z,1010.14
2017-10-06T00:09:52.783Z,1010.22
2017-10-06T00:11:01.626Z,1010.2
2017-10-06T00:12:10.470Z,1010.15
2017-10-06T00:13:19.362Z,1010.17
2017-10-06T00:14:28.207Z,1010.15
2017-10-06T00:15:37.049Z,1010.14
2017-10-06T00:16:45.891Z,1010.21
2017-10-06T00:17:54.731Z,1010.21
2017-10-06T00:19:03.574Z,1010.23
2017-10-06T00:20:13.840Z,1010.26
2017-10-06T00:21:22.680Z,1010.34
2017-10-06T00:22:31.524Z,1010.32
2017-10-06T00:23:40.368Z,1010.33
2017-10-06T00:24:49.457Z,1010.25
2017-10-06T00:25:58.300Z,1010.24
2017-10-06T00:27:07.142Z,1010.3
2017-10-06T00:28:15.986Z,1010.24
2017-10-06T00:29:24.825Z,1010.34
2017-10-06T00:30:33.814Z,1010.28
2017-10-06T00:31:42.985Z,1010.31
2017-10-06T00:32:51.827Z,1010.23
2017-10-06T00:34:01.000Z,1010.24
2017-10-06T00:35:09.844Z,1010.24
2017-10-06T00:36:18.785Z,1010.18
2017-10-06T00:37:27.963Z,1010.18
2017-10-06T00:38:36.804Z,1010.18
2017-10-06T00:39:45.647Z,1010.22
2017-10-06T00:40:54.488Z,1010.21
2017-10-06T00:42:03.329Z,1010.19
2017-10-06T00:43:12.172Z,1010.2
2017-10-06T00:44:21.015Z,1010.19
2017-10-06T00:45:29.854Z,1010.21
2017-10-06T00:46:38.699Z,1010.2
2017-10-06T00:47:48.020Z,1010.19
2017-10-06T00:48:57.195Z,1010.27
2017-10-06T00:50:06.037Z,1010.29
2017-10-06T00:51:14.877Z,1010.2
2017-10-06T00:52:23.727Z,1010.23
2017-10-06T00:53:32.722Z,1010.23
2017-10-06T00:54:41.565Z,1010.28
2017-10-06T00:55:50.407Z,1010.29
2017-10-06T00:56:59.250Z,1010.31
2017-10-06T00:58:08.429Z,1010.27
2017-10-06T00:59:17.420Z,1010.26
2017-10-06T01:00:26.261Z,1010.22
2017-10-06T01:01:35.102Z,1010.28
2017-10-06T01:02:43.942Z,1010.26
2017-10-06T01:03:52.782Z,1010.34
2017-10-06T01:05:01.675Z,1010.35
2017-10-06T01:06:10.515Z,1010.45
2017-10-06T01:07:19.356Z,1010.37
2017-10-06T01:08:28.199Z,1010.37
2017-10-06T01:09:37.039Z,1010.31
2017-10-06T01:10:45.982Z,1010.27
2017-10-06T01:11:54.824Z,1010.27
2017-10-06T01:13:03.669Z,1010.24
2017-10-06T01:14:12.511Z,1010.29
2017-10-06T01:15:21.354Z,1010.1
2017-10-06T01:16:30.346Z,1010.2
2017-10-06T01:17:39.189Z,1010.21
2017-10-06T01:18:48.030Z,1010.2
2017-10-06T01:19:56.873Z,1010.2
2017-10-06T01:21:05.714Z,1010.24
2017-10-06T01:22:14.708Z,1010.32
2017-10-06T01:23:23.553Z,1010.33
2017-10-06T01:24:32.396Z,1010.33
2017-10-06T01:25:41.570Z,1010.34
2017-10-06T01:26:50.409Z,1010.35
2017-10-06T01:27:59.298Z,1010.27
2017-10-06T01:29:08.479Z,1010.31
2017-10-06T01:30:17.318Z,1010.21
2017-10-06T01:31:26.160Z,1010.21
2017-10-06T01:32:35.005Z,1010.25
2017-10-06T01:33:43.997Z,1010.16
2017-10-06T01:34:52.839Z,1010.2
2017-10-06T01:36:01.681Z,1010.19
2017-10-06T01:37:10.520Z,1010.12
2017-10-06T01:38:19.703Z,1010.11
2017-10-06T01:39:28.745Z,1010.2
2017-10-06T01:40:37.632Z,1010.14
2017-10-06T01:41:46.474Z,1010.12
2017-10-06T01:42:55.314Z,1010.15
2017-10-06T01:44:04.154Z,1010.1
2017-10-06T01:45:13.047Z,1010.1
2017-10-06T01:46:21.894Z,1010.03
2017-10-06T01:47:30.735Z,1009.99
2017-10-06T01:48:39.577Z,1010.05
2017-10-06T01:49:48.419Z,1010.05
2017-10-06T01:50:57.468Z,1010.05
2017-10-06T01:52:06.304Z,1010.03
2017-10-06T01:53:15.479Z,1010.06
2017-10-06T01:54:24.322Z,1010.02
2017-10-06T01:55:33.520Z,1010.02
2017-10-06T01:56:42.361Z,1010.13
2017-10-06T01:57:51.538Z,1010.1
2017-10-06T01:59:00.380Z,1010.09
2017-10-06T02:00:09.222Z,1010.08
2017-10-06T02:01:18.063Z,1010.13
2017-10-06T02:02:27.055Z,1010.16
2017-10-06T02:03:35.897Z,1010.11
2017-10-06T02:04:44.734Z,1010.14
2017-10-06T02:05:53.575Z,1010.19
2017-10-06T02:07:02.421Z,1010.21
2017-10-06T02:08:11.366Z,1010.02
2017-10-06T02:09:20.207Z,1010.1
2017-10-06T02:10:29.392Z,1010.03
2017-10-06T02:11:38.232Z,1010.13
2017-10-06T02:12:47.074Z,1010.15
2017-10-06T02:13:55.965Z,1010.16
2017-10-06T02:15:04.807Z,1010.2
2017-10-06T02:16:13.647Z,1010.2
2017-10-06T02:17:22.829Z,1010.17
2017-10-06T02:18:31.671Z,1010.12
2017-10-06T02:19:40.663Z,1010.09
2017-10-06T02:20:49.504Z,1010.17
2017-10-06T02:21:58.347Z,1010.18
2017-10-06T02:23:07.188Z,1010.15
2017-10-06T02:24:16.030Z,1010.14
2017-10-06T02:25:25.072Z,1010.22
2017-10-06T02:26:33.914Z,1010.21
2017-10-06T02:27:42.756Z,1010.2
2017-10-06T02:28:51.598Z,1010.08
2017-10-06T02:30:00.781Z,1010.14
2017-10-06T02:31:10.064Z,1010.05
2017-10-06T02:32:18.907Z,1010.11
2017-10-06T02:33:27.749Z,1010.11
2017-10-06T02:34:36.589Z,1010.08
2017-10-06T02:35:45.435Z,1010.1
2017-10-06T02:36:54.327Z,1010.13
2017-10-06T02:38:03.177Z,1010.14
2017-10-06T02:39:12.019Z,1010.1
2017-10-06T02:40:20.862Z,1010.09
2017-10-06T02:41:29.703Z,1010.06
2017-10-06T02:42:39.001Z,1010.08
2017-10-06T02:43:47.843Z,1009.98
2017-10-06T02:44:56.684Z,1010.02
2017-10-06T02:46:05.527Z,1009.98
2017-10-06T02:47:14.369Z,1009.98
2017-10-06T02:48:23.258Z,1009.98
2017-10-06T02:49:32.102Z,1010.04
2017-10-06T02:50:40.949Z,1009.95
2017-10-06T02:51:50.148Z,1009.98
2017-10-06T02:52:58.993Z,1009.98
2017-10-06T02:54:08.264Z,1009.98
2017-10-06T02:55:17.107Z,1010.04
2017-10-06T02:56:25.946Z,1010.02
2017-10-06T02:57:34.788Z,1010.06
2017-10-06T02:58:43.628Z,1010.07
2017-10-06T02:59:52.621Z,1010.11
2017-10-06T03:01:01.467Z,1010.07
2017-10-06T03:02:10.310Z,1010.04
2017-10-06T03:03:19.153Z,1010.09
2017-10-06T03:04:27.994Z,1010.05
2017-10-06T03:05:37.136Z,1010.05
2017-10-06T03:06:45.978Z,1010.01
2017-10-06T03:07:54.819Z,1009.99
2017-10-06T03:09:03.662Z,1010.02
2017-10-06T03:10:12.840Z,1010.05
2017-10-06T03:11:21.779Z,1010.03
2017-10-06T03:12:30.624Z,1009.98
2017-10-06T03:13:39.466Z,1009.99
2017-10-06T03:14:48.305Z,1009.99
2017-10-06T03:15:57.147Z,1010
2017-10-06T03:17:06.088Z,1010.02
2017-10-06T03:18:14.929Z,1010.02
2017-10-06T03:19:23.770Z,1009.96
2017-10-06T03:20:32.612Z,1009.99
2017-10-06T03:21:41.457Z,1010.02
2017-10-06T03:22:50.549Z,1009.97
2017-10-06T03:23:59.388Z,1010.03
2017-10-06T03:25:08.232Z,1010.01
2017-10-06T03:26:17.074Z,1009.96
2017-10-06T03:27:25.915Z,1009.95
2017-10-06T03:28:34.859Z,1009.95
2017-10-06T03:29:43.701Z,1009.93
2017-10-06T03:30:52.543Z,1010.02
2017-10-06T03:32:01.387Z,1009.91
2017-10-06T03:33:10.228Z,1009.89
2017-10-06T03:34:19.170Z,1009.95
2017-10-06T03:35:28.013Z,1009.98
2017-10-06T03:36:36.856Z,1009.93
2017-10-06T03:37:45.694Z,1009.95
2017-10-06T03:38:54.534Z,1009.94
2017-10-06T03:40:03.625Z,1009.91
2017-10-06T03:41:12.467Z,1009.95
2017-10-06T03:42:21.310Z,1009.89
2017-10-06T03:43:30.153Z,1009.87
2017-10-06T03:44:38.999Z,1009.93
2017-10-06T03:45:48.043Z,1009.97
2017-10-06T03:46:56.884Z,1009.9
2017-10-06T03:48:05.727Z,1009.95
2017-10-06T03:49:14.569Z,1009.98
2017-10-06T03:50:23.412Z,1009.98
2017-10-06T03:51:32.304Z,1009.94
2017-10-06T03:52:41.146Z,1009.95
2017-10-06T03:53:49.987Z,1010.02
2017-10-06T03:54:58.830Z,1009.99
2017-10-06T03:56:07.675Z,1009.99
2017-10-06T03:57:16.665Z,1010.03
2017-10-06T03:58:25.840Z,1010.01
2017-10-06T03:59:34.681Z,1009.99
2017-10-06T04:00:43.523Z,1010.1
2017-10-06T04:01:52.362Z,1010.06
2017-10-06T04:03:01.372Z,1009.97
2017-10-06T04:04:10.546Z,1009.99
2017-10-06T04:05:19.390Z,1009.99
2017-10-06T04:06:28.230Z,1009.95
2017-10-06T04:07:37.074Z,1009.92
2017-10-06T04:08:46.064Z,1009.89
2017-10-06T04:09:54.907Z,1009.98
2017-10-06T04:11:03.748Z,1009.98
2017-10-06T04:12:12.589Z,1010.03
2017-10-06T04:13:21.431Z,1010.05
2017-10-06T04:14:30.657Z,1010.05
2017-10-06T04:15:39.497Z,1010.03
2017-10-06T04:16:48.339Z,1010.19
2017-10-06T04:17:57.179Z,1010.2
2017-10-06T04:19:06.022Z,1010.03
2017-10-06T04:20:15.012Z,1010.06
2017-10-06T04:21:23.853Z,1010.08
2017-10-06T04:22:32.696Z,1010.01
2017-10-06T04:23:41.540Z,1009.94
2017-10-06T04:24:50.381Z,1010.03
2017-10-06T04:25:59.322Z,1010.06
2017-10-06T04:27:08.164Z,1010.02
2017-10-06T04:28:17.005Z,1010.05
2017-10-06T04:29:25.850Z,1009.97
2017-10-06T04:30:34.694Z,1009.99
2017-10-06T04:31:43.685Z,1010.01
2017-10-06T04:32:52.527Z,1009.97
2017-10-06T04:34:01.371Z,1009.98
2017-10-06T04:35:10.212Z,1009.9
2017-10-06T04:36:19.056Z,1010.03
2017-10-06T04:37:28.203Z,1010.05
2017-10-06T04:38:37.044Z,1009.99
2017-10-06T04:39:45.888Z,1010.06
2017-10-06T04:40:54.729Z,1010.09
2017-10-06T04:42:03.568Z,1010.07
2017-10-06T04:43:12.408Z,1010.2
2017-10-06T04:44:21.248Z,1010.21
2017-10-06T04:45:30.090Z,1010.21
2017-10-06T04:46:38.931Z,1010.1
2017-10-06T04:47:47.774Z,1010.05
2017-10-06T04:48:56.715Z,1010.04
2017-10-06T04:50:05.556Z,1010.06
2017-10-06T04:51:14.397Z,1010.07
2017-10-06T04:52:23.233Z,1009.99
2017-10-06T04:53:32.075Z,1009.95
2017-10-06T04:54:41.320Z,1009.95
2017-10-06T04:55:50.162Z,1009.9
2017-10-06T04:56:59.002Z,1009.94
2017-10-06T04:58:07.842Z,1009.97
2017-10-06T04:59:16.684Z,1009.99
2017-10-06T05:00:25.624Z,1009.98
2017-10-06T05:01:34.466Z,1010
2017-10-06T05:02:43.310Z,1009.95
2017-10-06T05:03:52.152Z,1010.03
2017-10-06T05:05:01.328Z,1009.99
2017-10-06T05:06:10.221Z,1010.03
2017-10-06T05:07:19.064Z,1009.95
2017-10-06T05:08:27.906Z,1009.96
2017-10-06T05:09:36.750Z,1010.03
2017-10-06T05:10:45.926Z,1010.02
2017-10-06T05:11:54.867Z,1010.02
2017-10-06T05:13:03.710Z,1010.05
2017-10-06T05:14:12.551Z,1010.03
2017-10-06T05:15:21.729Z,1010.02
2017-10-06T05:16:30.570Z,1010.01
2017-10-06T05:17:39.565Z,1010.05
2017-10-06T05:18:48.407Z,1010.04
2017-10-06T05:19:57.248Z,1010.03
2017-10-06T05:21:06.091Z,1010.09
2017-10-06T05:22:15.264Z,1010.09
2017-10-06T05:23:24.108Z,1010.09
2017-10-06T05:24:33.286Z,1010.13
2017-10-06T05:25:42.127Z,1010.09
2017-10-06T05:26:50.969Z,1010.19
2017-10-06T05:27:59.811Z,1010.07
2017-10-06T05:29:09.189Z,1010.06
2017-10-06T05:30:18.031Z,1010.08
2017-10-06T05:31:26.871Z,1010
2017-10-06T05:32:35.710Z,1010.09
2017-10-06T05:33:44.553Z,1010.05
2017-10-06T05:34:53.495Z,1010.12
2017-10-06T05:36:02.336Z,1010.12
2017-10-06T05:37:11.179Z,1010.22
2017-10-06T05:38:20.020Z,1010.17
2017-10-06T05:39:28.863Z,1010.2
2017-10-06T05:40:37.754Z,1010.21
2017-10-06T05:41:46.597Z,1010.2
2017-10-06T05:42:55.442Z,1010.19
2017-10-06T05:44:04.286Z,1010.21
2017-10-06T05:45:13.127Z,1010.24
2017-10-06T05:46:22.120Z,1010.18
2017-10-06T05:47:30.961Z,1010.2
2017-10-06T05:48:39.803Z,1010.21
2017-10-06T05:49:48.648Z,1010.2
2017-10-06T05:50:57.491Z,1010.27
2017-10-06T05:52:06.735Z,1010.3
2017-10-06T05:53:15.576Z,1010.27
2017-10-06T05:54:24.419Z,1010.32
2017-10-06T05:55:33.262Z,1010.28
2017-10-06T05:56:42.103Z,1010.33
2017-10-06T05:57:51.097Z,1010.3
2017-10-06T05:58:59.939Z,1010.31
2017-10-06T06:00:08.781Z,1010.3
2017-10-06T06:01:17.626Z,1010.32
2017-10-06T06:02:26.470Z,1010.26
2017-10-06T06:03:35.410Z,1010.28
2017-10-06T06:04:44.254Z,1010.23
2017-10-06T06:05:53.096Z,1010.3
2017-10-06T06:07:01.938Z,1010.24
2017-10-06T06:08:10.781Z,1010.25
2017-10-06T06:09:19.726Z,1010.34
2017-10-06T06:10:28.566Z,1010.5
2017-10-06T06:11:37.411Z,1010.42
2017-10-06T06:12:46.581Z,1010.51
2017-10-06T06:13:55.422Z,1010.63
2017-10-06T06:15:04.563Z,1010.71
2017-10-06T06:16:13.406Z,1010.72
2017-10-06T06:17:22.247Z,1010.64
2017-10-06T06:18:31.091Z,1010.75
2017-10-06T06:19:39.933Z,1010.67
2017-10-06T06:20:49.028Z,1010.73
2017-10-06T06:21:57.871Z,1010.62
2017-10-06T06:23:06.717Z,1010.59
2017-10-06T06:24:15.562Z,1010.64
2017-10-06T06:25:24.402Z,1010.55
2017-10-06T06:26:33.293Z,1010.54
2017-10-06T06:27:42.134Z,1010.52
2017-10-06T06:28:50.977Z,1010.54
2017-10-06T06:29:59.818Z,1010.46
2017-10-06T06:31:08.661Z,1010.48
2017-10-06T06:32:17.551Z,1010.48
2017-10-06T06:33:26.394Z,1010.52
2017-10-06T06:34:35.239Z,1010.56
2017-10-06T06:35:44.416Z,1010.59
2017-10-06T06:36:53.257Z,1010.68
2017-10-06T06:38:02.199Z,1010.69
2017-10-06T06:39:11.042Z,1010.61
2017-10-06T06:40:19.883Z,1010.59
2017-10-06T06:41:28.723Z,1010.65
2017-10-06T06:42:37.565Z,1010.65
2017-10-06T06:43:46.658Z,1010.62
2017-10-06T06:44:55.500Z,1010.6
2017-10-06T06:46:04.686Z,1010.57
2017-10-06T06:47:13.528Z,1010.57
2017-10-06T06:48:22.372Z,1010.65
2017-10-06T06:49:31.365Z,1010.71
2017-10-06T06:50:40.209Z,1010.62
2017-10-06T06:51:49.050Z,1010.66
2017-10-06T06:52:57.894Z,1010.66
2017-10-06T06:54:06.736Z,1010.71
2017-10-06T06:55:15.579Z,1010.67
2017-10-06T06:56:24.420Z,1010.69
2017-10-06T06:57:33.263Z,1010.64
2017-10-06T06:58:42.106Z,1010.63
2017-10-06T06:59:50.947Z,1010.72
2017-10-06T07:00:59.838Z,1010.71
2017-10-06T07:02:08.682Z,1010.76
2017-10-06T07:03:17.525Z,1010.87
2017-10-06T07:04:26.369Z,1010.8
2017-10-06T07:05:35.212Z,1010.65
2017-10-06T07:06:44.052Z,1010.68
2017-10-06T07:07:52.896Z,1010.67
2017-10-06T07:09:01.740Z,1010.56
2017-10-06T07:10:10.582Z,1010.68
2017-10-06T07:11:19.423Z,1010.67
2017-10-06T07:12:28.316Z,1010.73
2017-10-06T07:13:37.157Z,1010.75
2017-10-06T07:14:46.051Z,1010.77
2017-10-06T07:15:54.897Z,1010.79
2017-10-06T07:17:03.738Z,1010.78
2017-10-06T07:18:12.880Z,1010.8
2017-10-06T07:19:21.723Z,1010.88
2017-10-06T07:20:30.566Z,1010.87
2017-10-06T07:21:39.412Z,1010.89
2017-10-06T07:22:48.251Z,1010.88
2017-10-06T07:23:57.194Z,1010.89
2017-10-06T07:25:06.037Z,1010.89
2017-10-06T07:26:14.880Z,1010.9
2017-10-06T07:27:23.722Z,1010.94
2017-10-06T07:28:32.564Z,1011.04
2017-10-06T07:29:41.558Z,1010.94
2017-10-06T07:30:50.401Z,1011
2017-10-06T07:31:59.246Z,1011.04
2017-10-06T07:33:08.089Z,1011.16
2017-10-06T07:34:16.935Z,1011.18
2017-10-06T07:35:25.830Z,1011.16
2017-10-06T07:36:34.674Z,1011.28
2017-10-06T07:37:43.519Z,1011.26
2017-10-06T07:38:52.366Z,1011.33
2017-10-06T07:40:01.207Z,1011.42
2017-10-06T07:41:10.102Z,1011.43
2017-10-06T07:42:18.944Z,1011.33
2017-10-06T07:43:27.792Z,1011.31
2017-10-06T07:44:36.636Z,1011.32
2017-10-06T07:45:45.477Z,1011.27
2017-10-06T07:46:54.371Z,1011.32
2017-10-06T07:48:03.216Z,1011.28
2017-10-06T07:49:12.060Z,1011.25
2017-10-06T07:50:20.901Z,1011.3
2017-10-06T07:51:30.078Z,1011.25
2017-10-06T07:52:39.122Z,1011.26
2017-10-06T07:53:47.963Z,1011.2
2017-10-06T07:54:56.806Z,1011.23
2017-10-06T07:56:05.650Z,1011.16
2017-10-06T07:57:14.491Z,1011.2
2017-10-06T07:58:23.382Z,1011.19
2017-10-06T07:59:32.224Z,1011.22
2017-10-06T08:00:41.069Z,1011.21
2017-10-06T08:01:49.911Z,1011.25
2017-10-06T08:02:58.780Z,1011.29
2017-10-06T08:04:08.229Z,1011.31
2017-10-06T08:05:17.409Z,1011.41
2017-10-06T08:06:26.254Z,1011.38
2017-10-06T08:07:35.098Z,1011.45
2017-10-06T08:08:43.940Z,1011.47
2017-10-06T08:09:52.935Z,1011.42
2017-10-06T08:11:01.778Z,1011.42
2017-10-06T08:12:10.618Z,1011.38
2017-10-06T08:13:19.461Z,1011.38
2017-10-06T08:14:28.506Z,1011.37
2017-10-06T08:15:37.499Z,1011.34
2017-10-06T08:16:46.445Z,1011.37
2017-10-06T08:17:55.290Z,1011.39
2017-10-06T08:19:04.132Z,1011.39
2017-10-06T08:20:12.976Z,1011.42
2017-10-06T08:21:21.922Z,1011.46
2017-10-06T08:22:30.771Z,1011.4
2017-10-06T08:23:39.615Z,1011.44
2017-10-06T08:24:48.460Z,1011.49
2017-10-06T08:25:57.303Z,1011.49
2017-10-06T08:27:06.352Z,1011.49
2017-10-06T08:28:15.194Z,1011.56
2017-10-06T08:29:24.037Z,1011.58
2017-10-06T08:30:32.883Z,1011.56
2017-10-06T08:31:41.727Z,1011.56
2017-10-06T08:32:50.675Z,1011.66
2017-10-06T08:33:59.519Z,1011.73
2017-10-06T08:35:08.364Z,1011.71
2017-10-06T08:36:17.210Z,1011.67
2017-10-06T08:37:26.059Z,1011.67
2017-10-06T08:38:35.006Z,1011.65
2017-10-06T08:39:43.850Z,1011.64
2017-10-06T08:40:52.697Z,1011.67
2017-10-06T08:42:01.543Z,1011.73
2017-10-06T08:43:10.386Z,1011.64
2017-10-06T08:44:19.381Z,1011.63
2017-10-06T08:45:28.225Z,1011.65
2017-10-06T08:46:37.070Z,1011.67
2017-10-06T08:47:45.919Z,1011.68
2017-10-06T08:48:54.767Z,1011.69
2017-10-06T08:50:04.345Z,1011.75
2017-10-06T08:51:13.195Z,1011.83
2017-10-06T08:52:22.375Z,1011.74
2017-10-06T08:53:31.558Z,1011.76
2017-10-06T08:54:41.073Z,1011.8
2017-10-06T08:55:50.116Z,1011.81
2017-10-06T08:56:58.961Z,1011.86
2017-10-06T08:58:07.809Z,1011.79
2017-10-06T08:59:16.651Z,1011.83
2017-10-06T09:00:25.497Z,1011.79
2017-10-06T09:01:34.492Z,1011.83
2017-10-06T09:02:43.666Z,1011.9
2017-10-06T09:03:52.512Z,1011.91
2017-10-06T09:05:01.359Z,1011.91
2017-10-06T09:06:10.209Z,1011.89
2017-10-06T09:07:19.202Z,1011.93
2017-10-06T09:08:28.048Z,1011.9
2017-10-06T09:09:36.892Z,1011.99
2017-10-06T09:10:45.738Z,1012.16
2017-10-06T09:11:54.583Z,1012.02
2017-10-06T09:13:03.482Z,1012
2017-10-06T09:14:12.326Z,1011.98
2017-10-06T09:15:21.172Z,1012
2017-10-06T09:16:30.017Z,1011.97
2017-10-06T09:17:38.865Z,1012.05
2017-10-06T09:18:47.862Z,1012.03
2017-10-06T09:19:56.711Z,1012.11
2017-10-06T09:21:05.558Z,1012.07
2017-10-06T09:22:14.403Z,1012.16
2017-10-06T09:23:23.584Z,1012.17
2017-10-06T09:24:32.431Z,1012.27
2017-10-06T09:25:41.275Z,1012.19
2017-10-06T09:26:50.172Z,1012.21
2017-10-06T09:27:59.017Z,1012.24
2017-10-06T09:29:08.194Z,1012.22
2017-10-06T09:30:17.089Z,1012.24
2017-10-06T09:31:25.933Z,1012.27
2017-10-06T09:32:34.782Z,1012.19
2017-10-06T09:33:43.957Z,1012.19
2017-10-06T09:34:52.802Z,1012.16
2017-10-06T09:36:01.695Z,1012.19
2017-10-06T09:37:10.541Z,1012.18
2017-10-06T09:38:19.384Z,1012.28
2017-10-06T09:39:28.232Z,1012.22
2017-10-06T09:40:37.079Z,1012.3
2017-10-06T09:41:45.925Z,1012.26
2017-10-06T09:42:55.115Z,1012.23
2017-10-06T09:44:03.960Z,1012.34
2017-10-06T09:45:12.805Z,1012.34
2017-10-06T09:46:21.650Z,1012.38
2017-10-06T09:47:30.793Z,1012.25
2017-10-06T09:48:39.644Z,1012.38
2017-10-06T09:49:48.821Z,1012.42
2017-10-06T09:50:57.666Z,1012.34
2017-10-06T09:52:06.843Z,1012.35
2017-10-06T09:53:15.786Z,1012.4
2017-10-06T09:54:24.631Z,1012.41
2017-10-06T09:55:33.474Z,1012.47
2017-10-06T09:56:42.319Z,1012.34
2017-10-06T09:57:51.165Z,1012.41
2017-10-06T09:59:00.110Z,1012.47
2017-10-06T10:00:08.967Z,1012.42
2017-10-06T10:01:17.827Z,1012.47
2017-10-06T10:02:26.673Z,1012.55
2017-10-06T10:03:35.877Z,1012.42
2017-10-06T10:04:44.722Z,1012.46
2017-10-06T10:05:53.566Z,1012.55
2017-10-06T10:07:02.410Z,1012.48
2017-10-06T10:08:11.256Z,1012.56
2017-10-06T10:09:20.103Z,1012.61
2017-10-06T10:10:29.048Z,1012.64
2017-10-06T10:11:37.894Z,1012.81
2017-10-06T10:12:46.738Z,1012.72
2017-10-06T10:13:55.586Z,1012.77
2017-10-06T10:15:04.430Z,1012.74
2017-10-06T10:16:13.328Z,1012.76
2017-10-06T10:17:22.175Z,1012.83
2017-10-06T10:18:31.018Z,1012.9
2017-10-06T10:19:39.866Z,1012.82
2017-10-06T10:20:48.710Z,1012.81
2017-10-06T10:21:57.655Z,1012.88
2017-10-06T10:23:06.502Z,1012.75
2017-10-06T10:24:15.347Z,1012.85
2017-10-06T10:25:24.194Z,1012.86
2017-10-06T10:26:33.038Z,1012.74
2017-10-06T10:27:42.033Z,1012.87
2017-10-06T10:28:50.878Z,1012.92
2017-10-06T10:29:59.722Z,1013.07
2017-10-06T10:31:08.568Z,1012.98
2017-10-06T10:32:17.409Z,1012.95
2017-10-06T10:33:26.255Z,1013.02
2017-10-06T10:34:35.101Z,1013.08
2017-10-06T10:35:43.945Z,1013.15
2017-10-06T10:36:52.789Z,1013.19
2017-10-06T10:38:01.965Z,1013.25
2017-10-06T10:39:10.910Z,1013.2
2017-10-06T10:40:19.753Z,1013.12
2017-10-06T10:41:28.598Z,1013.28
2017-10-06T10:42:37.773Z,1013.09
2017-10-06T10:43:46.617Z,1013.16
2017-10-06T10:44:55.458Z,1013.39
2017-10-06T10:46:04.299Z,1013.38
2017-10-06T10:47:13.146Z,1013.23
2017-10-06T10:48:22.327Z,1013.26
2017-10-06T10:49:31.171Z,1013.27
2017-10-06T10:50:40.019Z,1013.41
2017-10-06T10:51:48.861Z,1013.36
2017-10-06T10:52:57.705Z,1013.37
2017-10-06T10:54:06.549Z,1013.37
2017-10-06T10:55:15.721Z,1013.43
2017-10-06T10:56:24.715Z,1013.37
2017-10-06T10:57:33.557Z,1013.37
2017-10-06T10:58:42.732Z,1013.36
2017-10-06T10:59:51.577Z,1013.38
2017-10-06T11:01:00.422Z,1013.37
2017-10-06T11:02:09.368Z,1013.39
2017-10-06T11:03:18.211Z,1013.36
2017-10-06T11:04:27.061Z,1013.33
2017-10-06T11:05:35.902Z,1013.39
2017-10-06T11:06:44.749Z,1013.36
2017-10-06T11:07:53.592Z,1013.39
2017-10-06T11:09:02.436Z,1013.44
2017-10-06T11:10:11.282Z,1013.38
2017-10-06T11:11:20.126Z,1013.41
2017-10-06T11:12:28.970Z,1013.41
2017-10-06T11:13:37.963Z,1013.38
2017-10-06T11:14:46.806Z,1013.39
2017-10-06T11:15:55.647Z,1013.42
2017-10-06T11:17:04.490Z,1013.45
2017-10-06T11:18:13.334Z,1013.46
2017-10-06T11:19:22.377Z,1013.41
2017-10-06T11:20:31.220Z,1013.53
2017-10-06T11:21:40.067Z,1013.43
2017-10-06T11:22:48.911Z,1013.38
2017-10-06T11:23:57.756Z,1013.43
2017-10-06T11:25:06.701Z,1013.36
2017-10-06T11:26:15.546Z,1013.45
2017-10-06T11:27:24.391Z,1013.48
2017-10-06T11:28:33.573Z,1013.41
2017-10-06T11:29:42.416Z,1013.54
2017-10-06T11:30:51.408Z,1013.4
2017-10-06T11:32:00.251Z,1013.39
2017-10-06T11:33:09.097Z,1013.43
2017-10-06T11:34:17.941Z,1013.53
2017-10-06T11:35:26.791Z,1013.51
2017-10-06T11:36:35.687Z,1013.54
2017-10-06T11:37:44.529Z,1013.57
2017-10-06T11:38:53.375Z,1013.64
2017-10-06T11:40:02.220Z,1013.66
2017-10-06T11:41:11.065Z,1013.64
2017-10-06T11:42:20.161Z,1013.7
2017-10-06T11:43:29.007Z,1013.76
2017-10-06T11:44:37.853Z,1013.75
2017-10-06T11:45:46.697Z,1013.78
2017-10-06T11:46:55.539Z,1013.75
2017-10-06T11:48:04.533Z,1013.79
2017-10-06T11:49:13.378Z,1013.71
2017-10-06T11:50:22.222Z,1013.73
2017-10-06T11:51:31.067Z,1013.76
2017-10-06T11:52:39.911Z,1013.76
2017-10-06T11:53:48.761Z,1013.78
2017-10-06T11:54:57.605Z,1013.75
2017-10-06T11:56:06.446Z,1013.75
2017-10-06T11:57:15.290Z,1013.75
2017-10-06T11:58:24.134Z,1013.81
2017-10-06T11:59:33.463Z,1013.86
2017-10-06T12:00:42.306Z,1013.92
2017-10-06T12:01:51.152Z,1014.04
2017-10-06T12:02:59.997Z,1014.13
2017-10-06T12:04:09.176Z,1014.14
2017-10-06T12:05:18.069Z,1013.96
2017-10-06T12:06:26.913Z,1014.06
2017-10-06T12:07:35.757Z,1014.01
2017-10-06T12:08:44.601Z,1013.96
2017-10-06T12:09:53.445Z,1014.01
2017-10-06T12:11:02.335Z,1013.92
2017-10-06T12:12:11.180Z,1013.84
2017-10-06T12:13:20.022Z,1013.93
2017-10-06T12:14:28.865Z,1013.94
2017-10-06T12:15:37.709Z,1013.92
2017-10-06T12:16:46.654Z,1013.94
2017-10-06T12:17:55.498Z,1013.88
2017-10-06T12:19:04.342Z,1013.91
2017-10-06T12:20:13.189Z,1014.02
2017-10-06T12:21:22.035Z,1013.99
2017-10-06T12:22:31.177Z,1014.02
2017-10-06T12:23:40.024Z,1014
2017-10-06T12:24:48.866Z,1014.06
2017-10-06T12:25:57.713Z,1014.07
2017-10-06T12:27:06.555Z,1014.02
2017-10-06T12:28:15.397Z,1013.99
2017-10-06T12:29:24.241Z,1013.97
2017-10-06T12:30:33.085Z,1013.93
2017-10-06T12:31:41.929Z,1013.97
2017-10-06T12:32:50.772Z,1013.89
2017-10-06T12:33:59.719Z,1013.95
2017-10-06T12:35:08.900Z,1013.99
2017-10-06T12:36:17.744Z,1014.02
2017-10-06T12:37:26.590Z,1014.03
2017-10-06T12:38:35.774Z,1014.03
2017-10-06T12:39:44.719Z,1014
2017-10-06T12:40:53.565Z,1014.06
2017-10-06T12:42:02.411Z,1014.04
2017-10-06T12:43:11.261Z,1013.85
2017-10-06T12:44:20.107Z,1013.96
2017-10-06T12:45:29.154Z,1013.97
2017-10-06T12:46:38.000Z,1013.94
2017-10-06T12:47:46.846Z,1013.88
2017-10-06T12:48:55.692Z,1013.98
2017-10-06T12:50:04.537Z,1013.89
2017-10-06T12:51:13.783Z,1013.95
2017-10-06T12:52:22.629Z,1013.95
2017-10-06T12:53:31.474Z,1013.96
2017-10-06T12:54:40.317Z,1014
2017-10-06T12:55:49.162Z,1014
2017-10-06T12:56:58.006Z,1013.99
2017-10-06T12:58:06.853Z,1014.05
2017-10-06T12:59:16.038Z,1014.09
2017-10-06T13:00:24.886Z,1014.07
2017-10-06T13:01:33.735Z,1014.09
2017-10-06T13:02:42.830Z,1014.08
2017-10-06T13:03:51.680Z,1014.03
2017-10-06T13:05:00.525Z,1014.05
2017-10-06T13:06:09.381Z,1014.08
2017-10-06T13:07:18.227Z,1014.02
2017-10-06T13:08:27.274Z,1014.08
2017-10-06T13:09:36.119Z,1014.07
2017-10-06T13:10:44.969Z,1014.18
2017-10-06T13:11:53.814Z,1014.09
2017-10-06T13:13:02.660Z,1014.06
2017-10-06T13:14:11.605Z,1014.02
2017-10-06T13:15:20.451Z,1014.07
2017-10-06T13:16:29.297Z,1014.09
2017-10-06T13:17:38.144Z,1014.21
2017-10-06T13:18:46.990Z,1014.18
2017-10-06T13:19:55.886Z,1014.19
2017-10-06T13:21:04.733Z,1014.24
2017-10-06T13:22:13.580Z,1014.22
2017-10-06T13:23:22.427Z,1014.24
2017-10-06T13:24:31.276Z,1014.23
2017-10-06T13:25:40.174Z,1014.28
2017-10-06T13:26:49.019Z,1014.26
2017-10-06T13:27:57.862Z,1014.27
2017-10-06T13:29:06.707Z,1014.29
2017-10-06T13:30:15.552Z,1014.27
2017-10-06T13:31:24.645Z,1014.18
2017-10-06T13:32:33.491Z,1014.19
2017-10-06T13:33:42.335Z,1014.23
2017-10-06T13:34:51.182Z,1014.19
2017-10-06T13:36:00.028Z,1014.3
2017-10-06T13:37:09.020Z,1014.23
2017-10-06T13:38:17.866Z,1014.34
2017-10-06T13:39:26.710Z,1014.35
2017-10-06T13:40:35.558Z,1014.33
2017-10-06T13:41:44.404Z,1014.37
2017-10-06T13:42:53.601Z,1014.38
2017-10-06T13:44:02.450Z,1014.48
2017-10-06T13:45:11.295Z,1014.4
2017-10-06T13:46:20.472Z,1014.41
2017-10-06T13:47:29.317Z,1014.45
2017-10-06T13:48:38.264Z,1014.47
2017-10-06T13:49:47.113Z,1014.48
2017-10-06T13:50:55.962Z,1014.5
2017-10-06T13:52:04.810Z,1014.47
2017-10-06T13:53:13.993Z,1014.54
2017-10-06T13:54:23.141Z,1014.56
2017-10-06T13:55:31.989Z,1014.58
2017-10-06T13:56:40.844Z,1014.59